Time;durP1;ratioP1;P1;durP2;ratioP2;P2;SDS_P1;SDS_P2;PMS_P1;PMS_P2;Temp;Humidity;BMP_temperature;BMP_pressure;BME280_temperature;BME280_humidity;BME280_pressure;Samples;Min_cycle;Max_cycle;Signal;HPM_P1;HPM_P2
2022/02/13 00:00:36;;;;;;;5.78;4.00;;;;;;;;;;5054678;28;20209;-81
2022/02/13 00:03:06;;;;;;;4.20;3.55;;;;;;;;;;5056131;28;20658;-81
2022/02/13 00:05:40;;;;;;;3.15;2.85;;;;;;;;;;5056380;28;20304;-81
2022/02/13 00:08:14;;;;;;;5.20;3.47;;;;;;;;;;5056228;28;20586;-81
2022/02/13 00:10:54;;;;;;;6.47;4.78;;;;;;;;;;5055386;28;20708;-81
2022/02/13 00:13:23;;;;;;;7.53;4.47;;;;;;;;;;5065777;28;20235;-81
2022/02/13 00:15:52;;;;;;;7.43;4.18;;;;;;;;;;5061871;28;20256;-81
2022/02/13 00:18:20;;;;;;;4.50;3.70;;;;;;;;;;5073709;28;20268;-81
2022/02/13 00:20:51;;;;;;;4.75;3.38;;;;;;;;;;5073602;28;20193;-80
2022/02/13 00:23:29;;;;;;;4.88;3.97;;;;;;;;;;5058817;28;20285;-81
2022/02/13 00:25:58;;;;;;;4.35;4.00;;;;;;;;;;5056495;28;20259;-81
2022/02/13 00:28:49;;;;;;;5.68;3.85;;;;;;;;;;5056331;28;20210;-82
2022/02/13 00:31:23;;;;;;;5.90;4.60;;;;;;;;;;5036345;28;20202;-82
2022/02/13 00:33:51;;;;;;;5.63;3.80;;;;;;;;;;5036277;28;20236;-81
2022/02/13 00:36:20;;;;;;;4.88;3.83;;;;;;;;;;5035900;28;20210;-81
2022/02/13 00:38:48;;;;;;;5.30;3.80;;;;;;;;;;5035756;28;20218;-81
2022/02/13 00:41:20;;;;;;;3.47;3.17;;;;;;;;;;5035885;28;20229;-81
2022/02/13 00:43:52;;;;;;;5.82;3.67;;;;;;;;;;5036779;28;20198;-81
2022/02/13 00:46:28;;;;;;;4.72;3.65;;;;;;;;;;5036204;28;20316;-81
2022/02/13 00:48:56;;;;;;;4.10;3.80;;;;;;;;;;5035804;28;20273;-81
2022/02/13 00:51:23;;;;;;;4.10;3.78;;;;;;;;;;5034277;28;20217;-81
2022/02/13 00:53:50;;;;;;;6.03;4.55;;;;;;;;;;5034545;28;20216;-81
2022/02/13 00:56:17;;;;;;;5.80;4.03;;;;;;;;;;5034509;28;20222;-81
2022/02/13 00:58:45;;;;;;;5.57;3.63;;;;;;;;;;5035221;28;20213;-81
2022/02/13 01:01:14;;;;;;;6.40;3.33;;;;;;;;;;5034287;28;20265;-81
2022/02/13 01:03:42;;;;;;;5.82;4.72;;;;;;;;;;5035402;28;20205;-82
2022/02/13 01:06:09;;;;;;;4.68;4.25;;;;;;;;;;5034128;28;20230;-81
2022/02/13 01:08:37;;;;;;;5.63;4.00;;;;;;;;;;5033725;28;20575;-81
2022/02/13 01:11:05;;;;;;;5.90;3.72;;;;;;;;;;5034470;28;20195;-81
2022/02/13 01:13:33;;;;;;;5.35;3.78;;;;;;;;;;5035835;28;20202;-81
2022/02/13 01:16:00;;;;;;;6.18;3.90;;;;;;;;;;5034407;28;20214;-81
2022/02/13 01:18:29;;;;;;;5.70;3.60;;;;;;;;;;5034837;28;20218;-81
2022/02/13 01:20:57;;;;;;;4.22;3.83;;;;;;;;;;5033679;28;20260;-81
2022/02/13 01:23:24;;;;;;;2.95;2.65;;;;;;;;;;5036930;28;20206;-81
2022/02/13 01:25:51;;;;;;;4.40;3.95;;;;;;;;;;5037679;28;20305;-81
2022/02/13 01:28:20;;;;;;;4.45;4.10;;;;;;;;;;5038063;28;20202;-81
2022/02/13 01:30:47;;;;;;;4.25;3.85;;;;;;;;;;5054965;28;20233;-81
2022/02/13 01:33:15;;;;;;;4.75;4.00;;;;;;;;;;5059311;28;20292;-81
2022/02/13 01:35:43;;;;;;;4.90;4.03;;;;;;;;;;5058444;28;20646;-81
2022/02/13 01:38:11;;;;;;;4.05;3.60;;;;;;;;;;5058078;28;20692;-81
2022/02/13 01:40:38;;;;;;;3.38;3.08;;;;;;;;;;5057587;28;20197;-81
2022/02/13 01:43:05;;;;;;;3.90;3.55;;;;;;;;;;5057597;28;20205;-81
2022/02/13 01:45:32;;;;;;;5.43;4.90;;;;;;;;;;5057019;28;20237;-81
2022/02/13 01:48:00;;;;;;;4.35;3.95;;;;;;;;;;5058228;28;20206;-81
2022/02/13 01:50:27;;;;;;;5.40;4.07;;;;;;;;;;5057827;28;20209;-81
2022/02/13 01:52:56;;;;;;;6.28;4.63;;;;;;;;;;5057513;28;20233;-82
2022/02/13 01:55:24;;;;;;;4.07;3.65;;;;;;;;;;5057465;28;20221;-81
2022/02/13 01:57:51;;;;;;;4.47;3.97;;;;;;;;;;5056548;28;20212;-81
2022/02/13 02:00:18;;;;;;;5.05;4.60;;;;;;;;;;5056837;28;20210;-82
2022/02/13 02:02:46;;;;;;;6.63;4.63;;;;;;;;;;5057541;28;20194;-81
2022/02/13 02:05:13;;;;;;;4.53;4.10;;;;;;;;;;5056762;28;20275;-82
2022/02/13 02:07:40;;;;;;;4.25;3.83;;;;;;;;;;5057776;28;20202;-81
2022/02/13 02:10:10;;;;;;;4.30;3.83;;;;;;;;;;5056411;28;20224;-81
2022/02/13 02:12:37;;;;;;;4.53;4.10;;;;;;;;;;5056723;28;20719;-81
2022/02/13 02:15:06;;;;;;;5.82;4.35;;;;;;;;;;5056714;28;20204;-81
2022/02/13 02:17:34;;;;;;;4.28;3.88;;;;;;;;;;5056706;28;20206;-81
2022/02/13 02:20:01;;;;;;;5.85;4.38;;;;;;;;;;5057010;28;20743;-81
2022/02/13 02:22:28;;;;;;;4.28;3.88;;;;;;;;;;5056192;28;20221;-81
2022/02/13 02:24:57;;;;;;;4.30;3.90;;;;;;;;;;5056769;28;20205;-81
2022/02/13 02:27:24;;;;;;;4.65;4.25;;;;;;;;;;5056557;28;20226;-81
2022/02/13 02:29:52;;;;;;;3.90;3.50;;;;;;;;;;5056958;28;20214;-81
2022/02/13 02:32:19;;;;;;;4.05;3.33;;;;;;;;;;5056643;28;20205;-81
2022/02/13 02:34:46;;;;;;;3.97;3.45;;;;;;;;;;5055496;28;20202;-82
2022/02/13 02:37:13;;;;;;;8.25;4.55;;;;;;;;;;5055634;28;20221;-81
2022/02/13 02:39:41;;;;;;;4.22;3.85;;;;;;;;;;5056167;28;20681;-81
2022/02/13 02:42:13;;;;;;;5.13;4.03;;;;;;;;;;5055294;28;20581;-81
2022/02/13 02:44:40;;;;;;;6.03;3.78;;;;;;;;;;5055957;28;20220;-81
2022/02/13 02:47:08;;;;;;;4.28;3.67;;;;;;;;;;5055875;28;20221;-81
2022/02/13 02:49:35;;;;;;;3.97;3.60;;;;;;;;;;5056309;28;20214;-81
2022/02/13 02:52:02;;;;;;;3.75;3.35;;;;;;;;;;5055634;28;20560;-81
2022/02/13 02:54:30;;;;;;;4.32;3.90;;;;;;;;;;5054950;28;20205;-80
2022/02/13 02:56:57;;;;;;;4.40;4.00;;;;;;;;;;5054145;28;20610;-80
2022/02/13 02:59:25;;;;;;;6.68;4.90;;;;;;;;;;5054574;28;20662;-80
2022/02/13 03:01:53;;;;;;;8.13;4.32;;;;;;;;;;5053990;28;20677;-80
2022/02/13 03:04:20;;;;;;;7.70;4.70;;;;;;;;;;5054029;28;20629;-80
2022/02/13 03:06:47;;;;;;;7.53;4.75;;;;;;;;;;5054988;28;20234;-80
2022/02/13 03:09:15;;;;;;;6.80;4.78;;;;;;;;;;5054173;28;20205;-80
2022/02/13 03:11:42;;;;;;;5.18;4.53;;;;;;;;;;5054054;28;20209;-81
2022/02/13 03:14:10;;;;;;;4.57;4.18;;;;;;;;;;5054489;28;20240;-81
2022/02/13 03:16:38;;;;;;;5.65;4.85;;;;;;;;;;5054192;28;20244;-80
2022/02/13 03:19:06;;;;;;;4.40;4.00;;;;;;;;;;5054212;28;20662;-80
2022/02/13 03:21:33;;;;;;;5.43;4.53;;;;;;;;;;5053976;28;20259;-80
2022/02/13 03:24:00;;;;;;;5.20;4.30;;;;;;;;;;5053969;28;20206;-80
2022/02/13 03:26:29;;;;;;;6.05;4.65;;;;;;;;;;5054203;28;20221;-80
2022/02/13 03:28:56;;;;;;;6.95;5.05;;;;;;;;;;5054311;28;20213;-80
2022/02/13 03:31:23;;;;;;;5.72;4.07;;;;;;;;;;5054171;28;20271;-81
2022/02/13 03:33:52;;;;;;;6.75;5.38;;;;;;;;;;5053675;28;20635;-81
2022/02/13 03:36:19;;;;;;;4.95;4.55;;;;;;;;;;5053504;28;20706;-80
2022/02/13 03:38:47;;;;;;;5.30;4.70;;;;;;;;;;5054445;28;20232;-81
2022/02/13 03:41:14;;;;;;;6.68;5.43;;;;;;;;;;5054146;28;20209;-81
2022/02/13 03:43:41;;;;;;;5.15;3.88;;;;;;;;;;5053534;28;20206;-81
2022/02/13 03:46:08;;;;;;;4.53;3.78;;;;;;;;;;5053914;28;20256;-80
2022/02/13 03:48:36;;;;;;;4.32;3.92;;;;;;;;;;5053661;28;20205;-80
2022/02/13 03:51:04;;;;;;;7.25;5.07;;;;;;;;;;5053489;28;20264;-80
2022/02/13 03:53:32;;;;;;;6.28;4.70;;;;;;;;;;5053810;28;20299;-81
2022/02/13 03:55:59;;;;;;;6.93;4.97;;;;;;;;;;5053395;28;20632;-80
2022/02/13 03:58:26;;;;;;;4.85;4.10;;;;;;;;;;5053790;28;20278;-82
2022/02/13 04:00:53;;;;;;;4.95;4.45;;;;;;;;;;5053279;28;20198;-81
2022/02/13 04:03:21;;;;;;;4.32;3.92;;;;;;;;;;5053193;28;20529;-81
2022/02/13 04:05:49;;;;;;;5.28;4.45;;;;;;;;;;5053434;28;20807;-80
2022/02/13 04:08:17;;;;;;;7.30;5.47;;;;;;;;;;5053572;28;20222;-81
2022/02/13 04:10:44;;;;;;;5.35;4.85;;;;;;;;;;5053416;28;20623;-80
2022/02/13 04:13:12;;;;;;;5.80;4.95;;;;;;;;;;5053045;28;20239;-80
2022/02/13 04:15:40;;;;;;;7.60;3.85;;;;;;;;;;5053468;28;20233;-80
2022/02/13 04:18:13;;;;;;;5.57;5.07;;;;;;;;;;5053394;28;20648;-80
2022/02/13 04:20:40;;;;;;;5.25;4.85;;;;;;;;;;5053256;28;20670;-81
2022/02/13 04:23:07;;;;;;;6.10;5.07;;;;;;;;;;5053306;28;20224;-80
2022/02/13 04:25:37;;;;;;;6.75;5.45;;;;;;;;;;5053534;28;20229;-80
2022/02/13 04:28:05;;;;;;;7.13;4.80;;;;;;;;;;5053470;28;20316;-81
2022/02/13 04:30:33;;;;;;;6.00;4.60;;;;;;;;;;5053240;28;20595;-80
2022/02/13 04:33:00;;;;;;;5.45;4.95;;;;;;;;;;5052902;28;20193;-81
2022/02/13 04:35:28;;;;;;;5.55;4.57;;;;;;;;;;5052855;28;20213;-80
2022/02/13 04:37:57;;;;;;;5.63;4.57;;;;;;;;;;5053254;28;20198;-81
2022/02/13 04:40:25;;;;;;;6.30;4.55;;;;;;;;;;5052654;28;20578;-81
2022/02/13 04:42:54;;;;;;;5.15;4.53;;;;;;;;;;5053210;28;20206;-81
2022/02/13 04:45:21;;;;;;;8.07;5.57;;;;;;;;;;5053209;28;20280;-81
2022/02/13 04:47:49;;;;;;;5.88;4.43;;;;;;;;;;5052491;28;20217;-81
2022/02/13 04:50:21;;;;;;;6.30;4.75;;;;;;;;;;5053474;28;20228;-80
2022/02/13 04:52:49;;;;;;;6.75;4.72;;;;;;;;;;5052812;28;20301;-80
2022/02/13 04:55:17;;;;;;;5.13;4.63;;;;;;;;;;5052000;28;20275;-79
2022/02/13 04:57:44;;;;;;;5.80;5.30;;;;;;;;;;5052265;28;20209;-80
2022/02/13 05:00:16;;;;;;;7.40;5.25;;;;;;;;;;5052677;28;20201;-81
2022/02/13 05:02:44;;;;;;;5.57;5.05;;;;;;;;;;5052449;28;20208;-81
2022/02/13 05:05:12;;;;;;;5.25;4.47;;;;;;;;;;5053021;28;20235;-80
2022/02/13 05:07:39;;;;;;;5.57;4.40;;;;;;;;;;5052599;28;20705;-81
2022/02/13 05:10:08;;;;;;;7.80;5.28;;;;;;;;;;5052625;28;20201;-80
2022/02/13 05:12:35;;;;;;;5.68;4.38;;;;;;;;;;5052387;28;20263;-80
2022/02/13 05:15:02;;;;;;;4.85;4.43;;;;;;;;;;5052568;28;20204;-81
2022/02/13 05:17:35;;;;;;;7.07;4.55;;;;;;;;;;5052477;28;20210;-81
2022/02/13 05:20:03;;;;;;;5.40;4.20;;;;;;;;;;5052915;28;20205;-80
2022/02/13 05:22:31;;;;;;;6.35;4.90;;;;;;;;;;5052294;28;20214;-79
2022/02/13 05:24:58;;;;;;;4.97;4.50;;;;;;;;;;5052561;28;20235;-81
2022/02/13 05:27:25;;;;;;;5.30;4.75;;;;;;;;;;5052583;28;20279;-80
2022/02/13 05:29:52;;;;;;;7.35;4.65;;;;;;;;;;5052098;28;20727;-81
2022/02/13 05:32:20;;;;;;;5.32;4.65;;;;;;;;;;5052423;28;20213;-81
2022/02/13 05:34:48;;;;;;;5.60;5.03;;;;;;;;;;5052112;28;20248;-80
2022/02/13 05:37:16;;;;;;;5.38;4.40;;;;;;;;;;5052645;28;20244;-81
2022/02/13 05:39:43;;;;;;;4.95;4.47;;;;;;;;;;5052342;28;20236;-80
2022/02/13 05:42:11;;;;;;;5.55;4.53;;;;;;;;;;5051752;28;20300;-81
2022/02/13 05:44:39;;;;;;;6.95;4.88;;;;;;;;;;5052669;28;20214;-80
2022/02/13 05:47:07;;;;;;;6.38;5.28;;;;;;;;;;5052566;28;20225;-82
2022/02/13 05:49:35;;;;;;;5.32;4.82;;;;;;;;;;5053678;28;20678;-82
2022/02/13 05:52:04;;;;;;;7.75;5.07;;;;;;;;;;5053241;28;20202;-82
2022/02/13 05:54:31;;;;;;;6.60;5.00;;;;;;;;;;5052959;28;20240;-83
2022/02/13 05:56:58;;;;;;;5.50;4.95;;;;;;;;;;5053365;28;20221;-82
2022/02/13 05:59:25;;;;;;;9.07;7.20;;;;;;;;;;5052621;28;20578;-82
2022/02/13 06:01:53;;;;;;;7.15;5.68;;;;;;;;;;5053351;28;20690;-83
2022/02/13 06:04:21;;;;;;;6.88;4.82;;;;;;;;;;5055080;28;20209;-82
2022/02/13 06:06:49;;;;;;;10.38;6.70;;;;;;;;;;5054660;28;20705;-83
2022/02/13 06:09:18;;;;;;;7.85;6.32;;;;;;;;;;5055175;28;20250;-83
2022/02/13 06:11:45;;;;;;;5.57;5.07;;;;;;;;;;5058221;28;20202;-83
2022/02/13 06:14:13;;;;;;;7.63;6.82;;;;;;;;;;5058552;28;20684;-82
2022/02/13 06:16:41;;;;;;;10.95;8.05;;;;;;;;;;5057954;28;20229;-83
2022/02/13 06:19:08;;;;;;;11.75;7.53;;;;;;;;;;5058312;28;20193;-83
2022/02/13 06:21:36;;;;;;;6.03;5.32;;;;;;;;;;5057595;28;20197;-83
2022/02/13 06:24:04;;;;;;;5.53;4.57;;;;;;;;;;5056778;28;20201;-82
2022/02/13 06:26:35;;;;;;;6.75;5.68;;;;;;;;;;5057452;28;20230;-83
2022/02/13 06:29:03;;;;;;;8.02;6.68;;;;;;;;;;5057122;28;20221;-82
2022/02/13 06:31:30;;;;;;;9.02;7.10;;;;;;;;;;5057512;28;20206;-83
2022/02/13 06:33:57;;;;;;;6.53;5.88;;;;;;;;;;5056909;28;20209;-81
2022/02/13 06:36:24;;;;;;;10.48;6.35;;;;;;;;;;5057231;28;20225;-82
2022/02/13 06:38:52;;;;;;;8.07;6.20;;;;;;;;;;5056908;28;20198;-82
2022/02/13 06:41:19;;;;;;;6.03;5.45;;;;;;;;;;5056564;28;20209;-83
2022/02/13 06:43:48;;;;;;;5.30;4.55;;;;;;;;;;5057193;28;20202;-82
2022/02/13 06:46:15;;;;;;;8.52;6.45;;;;;;;;;;5056793;28;20228;-83
2022/02/13 06:48:42;;;;;;;8.43;6.90;;;;;;;;;;5056763;28;20221;-82
2022/02/13 06:51:10;;;;;;;10.38;8.00;;;;;;;;;;5056707;28;20275;-82
2022/02/13 06:53:38;;;;;;;11.32;8.25;;;;;;;;;;5056819;28;20658;-82
2022/02/13 06:56:06;;;;;;;12.50;10.23;;;;;;;;;;5055477;28;20225;-82
2022/02/13 06:58:33;;;;;;;8.85;7.63;;;;;;;;;;5056635;28;20717;-82
2022/02/13 07:01:02;;;;;;;8.30;7.40;;;;;;;;;;5055767;28;20210;-82
2022/02/13 07:03:29;;;;;;;11.20;9.07;;;;;;;;;;5056309;28;20210;-82
2022/02/13 07:05:56;;;;;;;11.20;8.32;;;;;;;;;;5055993;28;20638;-82
2022/02/13 07:08:23;;;;;;;12.60;9.30;;;;;;;;;;5056005;28;20693;-82
2022/02/13 07:10:50;;;;;;;12.70;8.48;;;;;;;;;;5056475;28;20205;-82
2022/02/13 07:13:18;;;;;;;11.02;8.65;;;;;;;;;;5055294;28;20205;-82
2022/02/13 07:15:45;;;;;;;7.30;6.55;;;;;;;;;;5054958;28;20713;-82
2022/02/13 07:18:14;;;;;;;9.77;8.52;;;;;;;;;;5056000;28;20213;-83
2022/02/13 07:20:41;;;;;;;10.25;7.88;;;;;;;;;;5055859;28;20214;-83
2022/02/13 07:23:09;;;;;;;10.27;8.15;;;;;;;;;;5055424;28;20658;-82
2022/02/13 07:25:36;;;;;;;11.80;8.68;;;;;;;;;;5054851;28;20636;-83
2022/02/13 07:28:58;;;;;;;9.85;8.55;;;;;;;;;;5055721;28;20215;-81
2022/02/13 07:30:52;;;;;;;9.85;8.50;;;;;;;;;;5055841;28;20267;-82
2022/02/13 07:33:20;;;;;;;9.45;8.05;;;;;;;;;;5055194;28;20208;-83
2022/02/13 07:35:47;;;;;;;12.18;9.55;;;;;;;;;;5054682;28;20275;-81
2022/02/13 07:38:15;;;;;;;9.55;8.52;;;;;;;;;;5055429;28;20204;-82
2022/02/13 07:40:42;;;;;;;9.48;8.07;;;;;;;;;;5055037;28;20213;-82
2022/02/13 07:43:09;;;;;;;10.43;7.80;;;;;;;;;;5054303;28;20205;-82
2022/02/13 07:45:37;;;;;;;9.48;7.72;;;;;;;;;;5055740;28;20233;-82
2022/02/13 07:48:04;;;;;;;9.23;8.20;;;;;;;;;;5054982;28;20198;-82
2022/02/13 07:50:33;;;;;;;8.05;7.25;;;;;;;;;;5056120;28;20221;-83
2022/02/13 07:53:00;;;;;;;9.45;8.07;;;;;;;;;;5055130;28;20205;-83
2022/02/13 07:55:28;;;;;;;10.00;8.55;;;;;;;;;;5055486;28;20221;-84
2022/02/13 07:57:55;;;;;;;9.27;8.00;;;;;;;;;;5055123;28;20229;-82
2022/02/13 08:00:23;;;;;;;11.23;7.88;;;;;;;;;;5055099;28;20206;-83
2022/02/13 08:02:50;;;;;;;11.65;8.18;;;;;;;;;;5055153;28;20673;-82
2022/02/13 08:05:18;;;;;;;7.72;6.93;;;;;;;;;;5054897;28;20578;-83
2022/02/13 08:07:48;;;;;;;7.95;7.18;;;;;;;;;;5055388;28;20255;-82
2022/02/13 08:10:15;;;;;;;7.72;6.93;;;;;;;;;;5055355;28;20643;-82
2022/02/13 08:12:43;;;;;;;8.52;6.93;;;;;;;;;;5054181;28;20404;-82
2022/02/13 08:15:11;;;;;;;9.13;8.02;;;;;;;;;;5055259;28;20264;-84
2022/02/13 08:17:38;;;;;;;9.13;7.88;;;;;;;;;;5054517;28;20578;-83
2022/02/13 08:20:09;;;;;;;7.97;7.18;;;;;;;;;;5054518;28;20251;-82
2022/02/13 08:22:37;;;;;;;10.38;8.30;;;;;;;;;;5054570;28;20202;-83
2022/02/13 08:25:07;;;;;;;11.45;8.43;;;;;;;;;;5055253;28;20194;-83
2022/02/13 08:27:35;;;;;;;10.93;9.25;;;;;;;;;;5055058;28;20263;-84
2022/02/13 08:30:02;;;;;;;10.75;7.82;;;;;;;;;;5055074;28;20229;-83
2022/02/13 08:32:29;;;;;;;10.00;6.82;;;;;;;;;;5054147;28;20224;-83
2022/02/13 08:34:57;;;;;;;10.38;8.35;;;;;;;;;;5055076;28;20202;-83
2022/02/13 08:37:24;;;;;;;9.07;8.15;;;;;;;;;;5055454;28;20229;-83
2022/02/13 08:39:51;;;;;;;8.07;6.95;;;;;;;;;;5055360;28;20201;-83
2022/02/13 08:42:20;;;;;;;9.48;7.38;;;;;;;;;;5055140;28;20665;-84
2022/02/13 08:44:47;;;;;;;8.63;7.70;;;;;;;;;;5054661;28;20202;-84
2022/02/13 08:47:14;;;;;;;7.45;6.75;;;;;;;;;;5054466;28;20225;-82
2022/02/13 08:49:42;;;;;;;9.00;6.53;;;;;;;;;;5054849;28;20226;-83
2022/02/13 08:52:09;;;;;;;10.23;7.15;;;;;;;;;;5057274;28;20222;-82
2022/02/13 08:54:37;;;;;;;8.13;6.35;;;;;;;;;;5062967;28;20212;-82
2022/02/13 08:57:04;;;;;;;5.97;5.47;;;;;;;;;;5061901;28;20220;-81
2022/02/13 08:59:33;;;;;;;5.97;4.65;;;;;;;;;;5061318;28;20208;-82
2022/02/13 09:02:01;;;;;;;7.50;6.75;;;;;;;;;;5060922;28;20596;-82
2022/02/13 09:04:28;;;;;;;7.78;6.97;;;;;;;;;;5060984;28;20208;-82
2022/02/13 09:06:55;;;;;;;8.05;6.80;;;;;;;;;;5060258;28;20228;-82
2022/02/13 09:09:23;;;;;;;9.80;7.88;;;;;;;;;;5060609;28;20218;-82
2022/02/13 09:11:50;;;;;;;8.93;6.97;;;;;;;;;;5061795;28;20211;-82
2022/02/13 09:14:17;;;;;;;8.20;7.15;;;;;;;;;;5060876;28;20584;-83
2022/02/13 09:16:46;;;;;;;8.07;7.28;;;;;;;;;;5060145;28;20632;-82
2022/02/13 09:19:14;;;;;;;7.47;6.55;;;;;;;;;;5062934;28;20202;-84
2022/02/13 09:21:41;;;;;;;10.18;7.00;;;;;;;;;;5062275;28;20198;-82
2022/02/13 09:24:08;;;;;;;8.82;7.45;;;;;;;;;;5060363;28;20254;-82
2022/02/13 09:26:36;;;;;;;7.57;6.68;;;;;;;;;;5060065;28;20596;-83
2022/02/13 09:29:04;;;;;;;7.05;6.35;;;;;;;;;;5060012;28;20694;-82
2022/02/13 09:31:31;;;;;;;6.82;6.22;;;;;;;;;;5057630;28;20232;-82
2022/02/13 09:34:00;;;;;;;5.82;4.60;;;;;;;;;;5058660;28;20240;-82
2022/02/13 09:36:27;;;;;;;8.15;5.75;;;;;;;;;;5060878;28;20300;-83
2022/02/13 09:38:55;;;;;;;7.63;5.95;;;;;;;;;;5058958;28;20208;-82
2022/02/13 09:41:23;;;;;;;6.03;5.45;;;;;;;;;;5059060;28;20220;-83
2022/02/13 09:43:54;;;;;;;5.57;5.03;;;;;;;;;;5059399;28;20244;-82
2022/02/13 09:46:23;;;;;;;7.63;6.13;;;;;;;;;;5062812;28;20740;-83
2022/02/13 09:48:53;;;;;;;5.50;5.00;;;;;;;;;;5063596;28;20218;-82
2022/02/13 09:51:22;;;;;;;5.47;4.97;;;;;;;;;;5062739;28;20213;-82
2022/02/13 09:53:50;;;;;;;4.55;4.15;;;;;;;;;;5061645;28;20197;-82
2022/02/13 09:56:17;;;;;;;8.05;6.43;;;;;;;;;;5063268;28;20224;-83
2022/02/13 09:58:45;;;;;;;5.93;5.40;;;;;;;;;;5062703;28;20205;-83
2022/02/13 10:01:12;;;;;;;7.80;5.35;;;;;;;;;;5062017;28;20681;-83
2022/02/13 10:03:41;;;;;;;8.07;5.75;;;;;;;;;;5060349;28;20228;-82
2022/02/13 10:06:25;;;;;;;6.22;5.32;;;;;;;;;;5061148;28;20229;-83
2022/02/13 10:08:54;;;;;;;6.07;5.47;;;;;;;;;;5062647;28;20202;-83
2022/02/13 10:11:24;;;;;;;6.20;5.20;;;;;;;;;;5061182;28;20225;-83
2022/02/13 10:13:55;;;;;;;7.07;6.22;;;;;;;;;;5061506;28;20206;-83
2022/02/13 10:16:26;;;;;;;5.10;4.60;;;;;;;;;;5060535;28;20230;-82
2022/02/13 10:18:56;;;;;;;10.93;5.95;;;;;;;;;;5061858;28;20255;-84
2022/02/13 10:21:42;;;;;;;5.85;5.25;;;;;;;;;;5062677;28;20241;-83
2022/02/13 10:24:22;;;;;;;5.80;5.03;;;;;;;;;;5061837;28;20216;-83
2022/02/13 10:27:05;;;;;;;5.90;5.20;;;;;;;;;;5063188;28;20229;-83
2022/02/13 10:29:36;;;;;;;5.65;5.15;;;;;;;;;;5062433;28;20602;-84
2022/02/13 10:32:21;;;;;;;6.78;5.25;;;;;;;;;;5060648;28;20222;-83
2022/02/13 10:35:04;;;;;;;6.90;5.60;;;;;;;;;;5061471;28;20197;-85
2022/02/13 10:37:47;;;;;;;5.25;4.68;;;;;;;;;;5064559;28;20265;-84
2022/02/13 10:40:17;;;;;;;5.55;5.05;;;;;;;;;;5065884;28;20205;-83
2022/02/13 10:42:45;;;;;;;5.95;5.30;;;;;;;;;;5064260;28;20205;-85
2022/02/13 10:45:23;;;;;;;6.05;5.20;;;;;;;;;;5064888;28;20202;-84
2022/02/13 10:47:52;;;;;;;5.28;4.88;;;;;;;;;;5063390;28;20197;-85
2022/02/13 10:50:21;;;;;;;6.63;6.03;;;;;;;;;;5064369;28;20601;-84
2022/02/13 10:52:52;;;;;;;5.18;4.78;;;;;;;;;;5063859;28;20201;-84
2022/02/13 10:55:20;;;;;;;5.53;4.97;;;;;;;;;;5064081;28;20209;-85
2022/02/13 10:58:01;;;;;;;6.28;5.68;;;;;;;;;;5063352;28;20201;-84
2022/02/13 11:00:42;;;;;;;5.30;4.80;;;;;;;;;;5062794;28;20233;-84
2022/02/13 11:03:19;;;;;;;6.13;5.30;;;;;;;;;;5063330;28;20205;-83
2022/02/13 11:05:46;;;;;;;6.65;6.05;;;;;;;;;;5063907;28;20217;-85
2022/02/13 11:08:17;;;;;;;6.45;5.75;;;;;;;;;;5064076;28;20202;-84
2022/02/13 11:10:47;;;;;;;5.03;4.57;;;;;;;;;;5064621;28;20316;-84
2022/02/13 11:13:16;;;;;;;5.93;5.32;;;;;;;;;;5065012;28;20210;-85
2022/02/13 11:15:45;;;;;;;6.45;5.85;;;;;;;;;;5064588;28;20253;-84
2022/02/13 11:18:18;;;;;;;7.20;6.28;;;;;;;;;;5064071;28;20670;-85
2022/02/13 11:20:46;;;;;;;6.93;6.22;;;;;;;;;;5064902;28;20650;-84
2022/02/13 11:23:23;;;;;;;7.13;6.13;;;;;;;;;;5063050;28;20263;-84
2022/02/13 11:25:52;;;;;;;7.22;6.53;;;;;;;;;;5065380;28;20221;-83
2022/02/13 11:28:24;;;;;;;5.00;4.50;;;;;;;;;;5064598;28;20198;-84
2022/02/13 11:30:52;;;;;;;5.82;4.82;;;;;;;;;;5064635;28;20304;-82
2022/02/13 11:33:44;;;;;;;5.25;4.75;;;;;;;;;;5065478;28;20213;-82
2022/02/13 11:36:13;;;;;;;5.95;5.00;;;;;;;;;;5059437;28;20229;-82
2022/02/13 11:39:00;;;;;;;5.20;4.72;;;;;;;;;;5064744;28;20206;-82
2022/02/13 11:42:11;;;;;;;5.07;4.57;;;;;;;;;;5063300;28;20202;-83
2022/02/13 11:44:49;;;;;;;5.97;5.35;;;;;;;;;;5061730;28;20236;-82
2022/02/13 11:47:38;;;;;;;6.22;5.68;;;;;;;;;;5064360;28;20222;-84
2022/02/13 11:50:26;;;;;;;4.97;4.57;;;;;;;;;;5064366;28;20205;-82
2022/02/13 11:52:56;;;;;;;5.10;4.60;;;;;;;;;;5062745;28;20232;-82
2022/02/13 11:55:26;;;;;;;5.47;4.97;;;;;;;;;;5063503;28;20257;-83
2022/02/13 11:57:56;;;;;;;6.18;5.57;;;;;;;;;;5064526;28;20586;-84
2022/02/13 12:00:38;;;;;;;6.82;6.13;;;;;;;;;;5068335;28;20205;-84
2022/02/13 12:03:14;;;;;;;9.20;7.88;;;;;;;;;;5068213;28;20202;-82
2022/02/13 12:05:42;;;;;;;5.13;4.68;;;;;;;;;;5068588;28;20225;-83
2022/02/13 12:08:09;;;;;;;4.82;3.80;;;;;;;;;;5068239;28;20216;-83
2022/02/13 12:10:41;;;;;;;5.72;5.00;;;;;;;;;;5066950;28;20288;-84
2022/02/13 12:13:12;;;;;;;5.25;4.75;;;;;;;;;;5066648;28;20228;-83
2022/02/13 12:15:42;;;;;;;6.82;6.13;;;;;;;;;;5067157;28;20226;-84
2022/02/13 12:18:12;;;;;;;6.07;5.38;;;;;;;;;;5067622;28;20209;-83
2022/02/13 12:20:40;;;;;;;5.43;4.93;;;;;;;;;;5066653;28;20228;-84
2022/02/13 12:23:10;;;;;;;5.47;4.88;;;;;;;;;;5064537;28;20692;-85
2022/02/13 12:26:22;;;;;;;7.38;5.80;;;;;;;;;;5066937;28;20658;-84
2022/02/13 12:28:50;;;;;;;6.32;5.72;;;;;;;;;;5044402;28;20208;-83
2022/02/13 12:31:23;;;;;;;5.85;5.35;;;;;;;;;;5048600;28;20233;-82
2022/02/13 12:33:54;;;;;;;5.28;4.78;;;;;;;;;;5047412;28;20198;-82
2022/02/13 12:36:24;;;;;;;4.18;3.83;;;;;;;;;;5048309;28;20726;-84
2022/02/13 12:38:55;;;;;;;4.47;4.03;;;;;;;;;;5047553;28;20709;-82
2022/02/13 12:41:25;;;;;;;8.13;4.95;;;;;;;;;;5047978;28;20210;-82
2022/02/13 12:43:55;;;;;;;4.38;3.97;;;;;;;;;;5047675;28;20265;-82
2022/02/13 12:46:25;;;;;;;5.20;4.32;;;;;;;;;;5045949;28;20218;-81
2022/02/13 12:48:52;;;;;;;7.22;5.15;;;;;;;;;;5045927;28;20208;-83
2022/02/13 12:51:29;;;;;;;6.80;4.63;;;;;;;;;;5041510;28;20202;-83
2022/02/13 12:53:59;;;;;;;4.15;3.83;;;;;;;;;;5042057;28;20216;-82
2022/02/13 12:56:28;;;;;;;4.05;3.75;;;;;;;;;;5046740;28;20313;-82
2022/02/13 12:58:55;;;;;;;6.80;4.90;;;;;;;;;;5045853;28;20202;-82
2022/02/13 13:01:37;;;;;;;4.90;4.40;;;;;;;;;;5046983;28;20202;-82
2022/02/13 13:04:05;;;;;;;4.63;4.03;;;;;;;;;;5046229;28;20202;-83
2022/02/13 13:06:35;;;;;;;5.20;4.70;;;;;;;;;;5044961;28;20226;-81
2022/02/13 13:09:03;;;;;;;5.50;4.35;;;;;;;;;;5045385;28;20202;-82
2022/02/13 13:11:33;;;;;;;8.07;4.53;;;;;;;;;;5046895;28;20692;-82
2022/02/13 13:14:07;;;;;;;6.72;4.47;;;;;;;;;;5045655;28;20197;-82
2022/02/13 13:16:35;;;;;;;5.43;4.32;;;;;;;;;;5046242;28;20228;-82
2022/02/13 13:19:03;;;;;;;5.25;4.47;;;;;;;;;;5049272;28;20202;-82
2022/02/13 13:21:43;;;;;;;4.55;4.15;;;;;;;;;;5052735;28;20209;-82
2022/02/13 13:24:13;;;;;;;4.72;4.32;;;;;;;;;;5052368;28;20206;-83
2022/02/13 13:26:54;;;;;;;7.18;5.20;;;;;;;;;;5050253;28;20289;-82
2022/02/13 13:29:25;;;;;;;5.90;4.75;;;;;;;;;;5048112;28;20205;-83
2022/02/13 13:32:01;;;;;;;5.50;4.07;;;;;;;;;;5048653;28;20248;-83
2022/02/13 13:34:30;;;;;;;4.22;3.90;;;;;;;;;;5049043;28;20206;-82
2022/02/13 13:36:58;;;;;;;4.15;3.50;;;;;;;;;;5048846;28;20291;-81
2022/02/13 13:39:34;;;;;;;5.90;4.72;;;;;;;;;;5048255;28;20198;-82
2022/02/13 13:42:13;;;;;;;4.90;4.50;;;;;;;;;;5047134;28;20202;-83
2022/02/13 13:44:41;;;;;;;4.82;4.35;;;;;;;;;;5048248;28;20576;-82
2022/02/13 13:47:08;;;;;;;4.25;3.88;;;;;;;;;;5047754;28;20238;-81
2022/02/13 13:49:35;;;;;;;3.97;3.63;;;;;;;;;;5046918;28;20195;-82
2022/02/13 13:52:03;;;;;;;4.63;4.18;;;;;;;;;;5046386;28;20280;-82
2022/02/13 13:54:30;;;;;;;4.20;3.80;;;;;;;;;;5047710;28;20721;-83
2022/02/13 13:56:57;;;;;;;4.93;4.05;;;;;;;;;;5047248;28;20284;-81
2022/02/13 13:59:26;;;;;;;5.93;4.22;;;;;;;;;;5047319;28;20601;-81
2022/02/13 14:01:53;;;;;;;5.00;4.60;;;;;;;;;;5047496;28;20256;-82
2022/02/13 14:04:20;;;;;;;5.45;4.88;;;;;;;;;;5048486;28;20212;-81
2022/02/13 14:06:48;;;;;;;5.85;4.43;;;;;;;;;;5047027;28;20238;-82
2022/02/13 14:09:15;;;;;;;5.53;5.03;;;;;;;;;;5047355;28;20202;-81
2022/02/13 14:11:43;;;;;;;6.72;4.63;;;;;;;;;;5047223;28;20202;-82
2022/02/13 14:14:11;;;;;;;5.40;4.05;;;;;;;;;;5046976;28;20223;-82
2022/02/13 14:16:40;;;;;;;5.15;4.32;;;;;;;;;;5047119;28;20600;-82
2022/02/13 14:19:07;;;;;;;4.13;3.65;;;;;;;;;;5045544;28;20206;-81
2022/02/13 14:21:35;;;;;;;4.22;3.70;;;;;;;;;;5046820;28;20202;-84
2022/02/13 14:24:02;;;;;;;4.95;4.25;;;;;;;;;;5046278;28;20225;-81
2022/02/13 14:26:29;;;;;;;4.95;4.43;;;;;;;;;;5046641;28;20222;-81
2022/02/13 14:28:56;;;;;;;5.57;4.35;;;;;;;;;;5046438;28;20295;-81
2022/02/13 14:31:25;;;;;;;5.82;4.85;;;;;;;;;;5045286;28;20299;-81
2022/02/13 14:33:54;;;;;;;5.28;4.60;;;;;;;;;;5045315;28;20586;-82
2022/02/13 14:36:21;;;;;;;4.55;4.00;;;;;;;;;;5045865;28;20710;-81
2022/02/13 14:38:49;;;;;;;5.00;4.28;;;;;;;;;;5046300;28;20260;-82
2022/02/13 14:41:16;;;;;;;5.20;4.28;;;;;;;;;;5045256;28;20199;-82
2022/02/13 14:43:47;;;;;;;4.80;4.30;;;;;;;;;;5044583;28;20562;-81
2022/02/13 14:46:14;;;;;;;5.10;4.10;;;;;;;;;;5045683;28;20226;-82
2022/02/13 14:48:45;;;;;;;6.78;4.82;;;;;;;;;;5044017;28;20249;-81
2022/02/13 14:51:14;;;;;;;4.70;4.30;;;;;;;;;;5044302;28;20202;-82
2022/02/13 14:53:41;;;;;;;5.50;4.10;;;;;;;;;;5045434;28;20226;-83
2022/02/13 14:56:09;;;;;;;6.10;4.80;;;;;;;;;;5044184;28;20226;-81